createdAt,value
2023-04-12T00:05:28.972Z,5.90
2023-04-12T00:20:30.781Z,5.60
2023-04-12T00:35:32.376Z,5.80
2023-04-12T00:50:34.003Z,3.95
2023-04-12T01:05:35.586Z,4.68
2023-04-12T01:20:37.835Z,4.70
2023-04-12T01:35:39.628Z,6.18
2023-04-12T01:50:43.099Z,4.95
2023-04-12T02:05:44.813Z,4.32
2023-04-12T02:20:46.988Z,5.13
2023-04-12T02:35:48.708Z,5.75
2023-04-12T02:50:54.554Z,4.00
2023-04-12T03:05:58.872Z,4.70
2023-04-12T03:21:02.700Z,6.53
2023-04-12T03:36:05.772Z,5.38
2023-04-12T03:51:12.343Z,8.45
2023-04-12T04:06:18.707Z,4.45
2023-04-12T04:21:22.523Z,6.65
2023-04-12T04:36:30.238Z,5.60
2023-04-12T04:51:32.645Z,4.53
2023-04-12T05:06:37.503Z,5.40
2023-04-12T05:21:41.385Z,3.00
2023-04-12T05:36:43.395Z,3.83
2023-04-12T05:51:45.141Z,2.63
2023-04-12T06:06:56.440Z,2.60
2023-04-12T06:21:58.350Z,3.92
2023-04-12T06:37:00.895Z,3.38
2023-04-12T06:52:02.590Z,4.88
2023-04-12T07:07:04.502Z,4.10
2023-04-12T07:22:06.146Z,3.85
2023-04-12T07:37:07.786Z,4.38
2023-04-12T07:52:09.380Z,2.85
2023-04-12T08:07:11.040Z,2.42
2023-04-12T08:22:13.703Z,2.47
2023-04-12T08:37:15.595Z,2.50
2023-04-12T08:52:17.375Z,3.65
2023-04-12T09:07:19.200Z,3.70
2023-04-12T09:22:20.838Z,4.55
2023-04-12T09:37:22.421Z,3.00
2023-04-12T09:52:24.027Z,3.20
2023-04-12T10:07:25.666Z,4.53
2023-04-12T10:22:27.295Z,3.17
2023-04-12T10:37:28.938Z,6.43
2023-04-12T10:52:30.585Z,3.38
2023-04-12T11:07:32.203Z,5.60
2023-04-12T11:23:03.970Z,4.68
2023-04-12T11:38:05.604Z,4.13
2023-04-12T11:53:07.245Z,3.95
2023-04-12T12:08:08.850Z,3.90
2023-04-12T12:23:10.459Z,3.03
2023-04-12T12:38:12.061Z,3.35
2023-04-12T12:53:13.721Z,1.95
2023-04-12T13:08:15.337Z,2.13
2023-04-12T13:23:16.933Z,1.25
2023-04-12T13:38:18.622Z,1.25
2023-04-12T13:53:20.221Z,2.92
2023-04-12T14:08:22.021Z,1.00
2023-04-12T14:23:26.768Z,1.52
2023-04-12T14:38:28.427Z,1.08
2023-04-12T14:53:30.036Z,2.00
2023-04-12T15:08:31.632Z,3.10
2023-04-12T15:23:33.253Z,1.33
2023-04-12T15:38:34.860Z,1.10
2023-04-12T15:53:36.531Z,0.90
2023-04-12T16:08:38.148Z,1.05
2023-04-12T16:23:39.756Z,1.42
2023-04-12T16:38:41.371Z,0.93
2023-04-12T16:53:42.997Z,1.00
2023-04-12T17:08:45.485Z,1.40
2023-04-12T17:23:49.878Z,1.23
2023-04-12T17:38:51.824Z,1.77
2023-04-12T18:09:26.557Z,6.47
2023-04-12T18:24:28.350Z,5.07
2023-04-12T18:39:30.265Z,1.73
2023-04-12T18:54:31.989Z,1.80
2023-04-12T19:09:34.342Z,3.92
2023-04-12T19:24:36.322Z,2.60
2023-04-12T19:39:39.226Z,3.78
2023-04-12T19:54:40.911Z,1.73
2023-04-12T20:09:42.530Z,1.35
2023-04-12T20:24:47.375Z,1.58
2023-04-12T20:39:49.295Z,2.92
2023-04-12T20:54:53.332Z,7.00
2023-04-12T21:09:55.005Z,1.20
2023-04-12T21:24:56.608Z,0.88
2023-04-12T21:39:58.228Z,1.00
2023-04-12T21:55:00.355Z,2.58
2023-04-12T22:10:02.691Z,0.60
2023-04-12T22:25:04.926Z,2.15
2023-04-12T22:40:11.687Z,1.38
2023-04-12T22:55:14.629Z,2.00
2023-04-12T23:10:16.580Z,2.05
2023-04-12T23:25:18.210Z,0.90
2023-04-12T23:40:19.796Z,0.80
2023-04-12T23:55:26.354Z,1.33
